createdAt,value
2023-04-01T00:01:18.748Z,24.80
2023-04-01T00:03:47.177Z,24.77
2023-04-01T00:06:17.938Z,24.67
2023-04-01T00:08:46.848Z,25.85
2023-04-01T00:11:16.029Z,27.33
2023-04-01T00:13:44.430Z,25.83
2023-04-01T00:16:20.338Z,27.33
2023-04-01T00:18:51.600Z,27.50
2023-04-01T00:21:21.540Z,26.88
2023-04-01T00:23:52.256Z,27.45
2023-04-01T00:26:22.827Z,26.77
2023-04-01T00:28:51.976Z,27.60
2023-04-01T00:31:20.399Z,27.95
2023-04-01T00:33:49.042Z,27.98
2023-04-01T00:36:20.586Z,27.95
2023-04-01T00:38:49.188Z,29.15
2023-04-01T00:41:19.480Z,29.98
2023-04-01T00:43:50.777Z,30.77
2023-04-01T00:46:19.345Z,31.98
2023-04-01T00:48:56.480Z,31.90
2023-04-01T00:51:30.116Z,29.83
2023-04-01T00:54:02.823Z,30.35
2023-04-01T00:56:39.268Z,29.00
2023-04-01T00:59:27.828Z,29.77
2023-04-01T01:01:56.177Z,28.45
2023-04-01T01:04:30.898Z,28.08
2023-04-01T01:07:26.227Z,28.77
2023-04-01T01:10:00.233Z,28.55
2023-04-01T01:12:39.359Z,29.45
2023-04-01T01:15:13.754Z,29.30
2023-04-01T01:18:18.838Z,29.55
2023-04-01T01:20:49.730Z,31.10
2023-04-01T01:23:59.358Z,29.33
2023-04-01T01:26:55.549Z,28.80
2023-04-01T01:29:45.235Z,31.45
2023-04-01T01:32:50.643Z,28.85
2023-04-01T01:35:41.407Z,27.92
2023-04-01T01:38:27.317Z,25.50
2023-04-01T01:41:06.468Z,26.60
2023-04-01T01:43:40.315Z,27.38
2023-04-01T01:46:17.754Z,25.17
2023-04-01T01:48:51.713Z,25.33
2023-04-01T01:51:22.362Z,24.90
2023-04-01T01:53:50.710Z,24.80
2023-04-01T01:56:27.682Z,24.42
2023-04-01T01:59:01.492Z,24.58
2023-04-01T02:01:34.058Z,22.92
2023-04-01T02:04:12.218Z,20.85
2023-04-01T02:06:47.742Z,22.67
2023-04-01T02:09:16.423Z,22.38
2023-04-01T02:11:50.672Z,21.83
2023-04-01T02:14:23.615Z,22.80
2023-04-01T02:17:01.169Z,22.10
2023-04-01T02:20:00.285Z,22.33
2023-04-01T02:22:34.318Z,21.50
2023-04-01T02:25:18.807Z,22.23
2023-04-01T02:27:48.080Z,20.55
2023-04-01T02:30:18.215Z,21.35
2023-04-01T02:32:47.564Z,20.80
2023-04-01T02:35:17.709Z,20.40
2023-04-01T02:37:49.617Z,22.17
2023-04-01T02:40:18.487Z,20.35
2023-04-01T02:42:46.945Z,22.20
2023-04-01T02:45:16.011Z,21.67
2023-04-01T02:47:44.334Z,20.65
2023-04-01T02:50:12.617Z,20.92
2023-04-01T02:52:40.915Z,21.33
2023-04-01T02:55:10.012Z,20.30
2023-04-01T02:57:38.364Z,21.27
2023-04-01T03:00:12.105Z,20.85
2023-04-01T03:02:40.763Z,24.02
2023-04-01T03:05:09.319Z,23.65
2023-04-01T03:07:37.580Z,23.58
2023-04-01T03:10:09.650Z,24.02
2023-04-01T03:12:37.963Z,25.50
2023-04-01T03:15:11.462Z,24.58
2023-04-01T03:17:44.781Z,24.35
2023-04-01T03:20:13.936Z,24.43
2023-04-01T03:22:43.176Z,23.83
2023-04-01T03:25:12.047Z,24.23
2023-04-01T03:27:41.672Z,24.33
2023-04-01T03:30:11.337Z,24.95
2023-04-01T03:32:48.332Z,26.35
2023-04-01T03:35:16.616Z,23.30
2023-04-01T03:37:45.053Z,22.60
2023-04-01T03:40:13.659Z,24.83
2023-04-01T03:42:41.890Z,25.02
2023-04-01T03:45:10.712Z,24.70
2023-04-01T03:47:39.446Z,25.63
2023-04-01T03:50:08.399Z,25.33
2023-04-01T03:52:39.772Z,25.35
2023-04-01T03:55:08.753Z,23.13
2023-04-01T03:57:37.941Z,20.23
2023-04-01T04:00:16.517Z,23.20
2023-04-01T04:02:47.866Z,22.50
2023-04-01T04:05:22.127Z,21.42
2023-04-01T04:07:50.834Z,21.25
2023-04-01T04:10:23.339Z,23.25
2023-04-01T04:12:53.738Z,22.02
2023-04-01T04:15:24.156Z,20.40
2023-04-01T04:17:52.767Z,20.92
2023-04-01T04:20:21.043Z,19.48
2023-04-01T04:22:49.237Z,19.48
2023-04-01T04:25:17.583Z,19.45
2023-04-01T04:27:46.464Z,16.88
2023-04-01T04:30:16.540Z,16.58
2023-04-01T04:32:44.885Z,17.80
2023-04-01T04:35:14.293Z,19.13
2023-04-01T04:37:42.479Z,23.50
2023-04-01T04:40:11.656Z,26.40
2023-04-01T04:42:40.301Z,26.85
2023-04-01T04:45:13.684Z,25.73
2023-04-01T04:47:47.851Z,24.67
2023-04-01T04:50:16.196Z,23.55
2023-04-01T04:52:44.364Z,25.35
2023-04-01T04:55:18.886Z,24.05
2023-04-01T04:57:51.679Z,23.90
2023-04-01T05:00:20.044Z,25.13
2023-04-01T05:02:57.351Z,22.45
2023-04-01T05:05:25.553Z,23.35
2023-04-01T05:07:53.800Z,24.90
2023-04-01T05:10:22.112Z,23.58
2023-04-01T05:12:50.437Z,26.05
2023-04-01T05:15:22.314Z,26.50
2023-04-01T05:17:50.824Z,26.52
2023-04-01T05:20:19.117Z,26.92
2023-04-01T05:22:50.110Z,27.30
2023-04-01T05:25:18.670Z,28.02
2023-04-01T05:27:46.884Z,29.73
2023-04-01T05:30:14.983Z,31.90
2023-04-01T05:33:04.122Z,42.05
2023-04-01T05:35:32.572Z,44.97
2023-04-01T05:38:01.171Z,44.55
2023-04-01T05:43:02.753Z,46.20
2023-04-01T05:45:31.529Z,44.05
2023-04-01T05:48:18.354Z,39.88
2023-04-01T05:50:46.557Z,42.42
2023-04-01T05:53:15.718Z,42.45
2023-04-01T05:55:45.559Z,40.95
2023-04-01T05:58:13.733Z,44.78
2023-04-01T06:00:46.544Z,45.20
2023-04-01T06:05:46.523Z,36.03
2023-04-01T06:08:19.822Z,29.98
2023-04-01T06:11:14.516Z,30.27
2023-04-01T06:17:06.715Z,29.40
2023-04-01T06:22:44.078Z,32.25
2023-04-01T06:25:12.677Z,32.45
2023-04-01T06:27:58.821Z,28.88
2023-04-01T06:30:34.221Z,29.48
2023-04-01T06:33:06.271Z,25.90
2023-04-01T06:35:53.122Z,26.55
2023-04-01T06:38:27.604Z,26.13
2023-04-01T06:41:41.756Z,26.98
2023-04-01T06:44:20.410Z,27.70
2023-04-01T06:47:44.031Z,28.13
2023-04-01T06:50:56.241Z,31.25
2023-04-01T06:53:50.935Z,30.92
2023-04-01T06:56:43.745Z,29.75
2023-04-01T06:59:31.193Z,31.55
2023-04-01T07:02:10.545Z,28.53
2023-04-01T07:04:49.766Z,27.27
2023-04-01T07:07:38.765Z,28.50
2023-04-01T07:10:44.542Z,28.73
2023-04-01T07:13:44.308Z,29.85
2023-04-01T07:16:53.979Z,30.60
2023-04-01T07:19:33.904Z,30.27
2023-04-01T07:22:30.802Z,33.33
2023-04-01T07:25:42.694Z,35.05
2023-04-01T07:28:35.322Z,35.22
2023-04-01T07:31:31.430Z,36.90
2023-04-01T07:34:17.575Z,34.28
2023-04-01T07:37:09.173Z,38.53
2023-04-01T07:40:02.464Z,39.00
2023-04-01T07:43:13.733Z,33.83
2023-04-01T07:46:16.139Z,35.63
2023-04-01T07:49:31.050Z,35.40
2023-04-01T07:52:02.665Z,36.90
2023-04-01T07:54:41.028Z,38.47
2023-04-01T07:57:25.802Z,39.03
2023-04-01T08:00:17.888Z,41.95
2023-04-01T08:03:18.822Z,39.05
2023-04-01T08:06:19.862Z,37.35
2023-04-01T08:09:07.138Z,34.75
2023-04-01T08:12:26.641Z,35.38
2023-04-01T08:15:43.948Z,31.77
2023-04-01T08:18:23.675Z,33.47
2023-04-01T08:20:59.316Z,31.65
2023-04-01T08:23:46.168Z,31.30
2023-04-01T08:26:43.780Z,32.78
2023-04-01T08:29:21.963Z,31.45
2023-04-01T08:32:15.909Z,29.33
2023-04-01T08:37:33.579Z,28.35
2023-04-01T08:40:12.468Z,29.65
2023-04-01T08:43:04.748Z,30.90
2023-04-01T08:46:18.148Z,31.38
2023-04-01T08:49:13.150Z,32.97
2023-04-01T08:52:02.655Z,32.97
2023-04-01T08:54:42.746Z,27.98
2023-04-01T08:57:41.184Z,29.40
2023-04-01T09:03:32.838Z,23.38
2023-04-01T09:06:18.991Z,23.42
2023-04-01T09:09:12.806Z,25.25
2023-04-01T09:12:18.728Z,22.75
2023-04-01T09:15:02.330Z,22.13
2023-04-01T09:17:53.924Z,21.80
2023-04-01T09:20:56.271Z,21.55
2023-04-01T09:23:38.891Z,22.83
2023-04-01T09:26:29.151Z,23.52
2023-04-01T09:29:19.385Z,23.20
2023-04-01T09:32:13.789Z,21.33
2023-04-01T09:34:54.834Z,21.80
2023-04-01T09:37:32.139Z,21.65
2023-04-01T09:40:11.322Z,20.77
2023-04-01T09:42:46.286Z,20.63
2023-04-01T09:46:02.871Z,21.92
2023-04-01T09:48:40.484Z,22.63
2023-04-01T09:51:22.109Z,23.00
2023-04-01T09:54:22.401Z,21.77
2023-04-01T09:57:04.037Z,21.95
2023-04-01T10:00:10.876Z,21.50
2023-04-01T10:03:30.599Z,21.02
2023-04-01T10:06:04.859Z,22.33
2023-04-01T10:08:57.537Z,23.25
2023-04-01T10:11:46.030Z,23.83
2023-04-01T10:14:26.668Z,22.23
2023-04-01T10:17:06.739Z,24.63
2023-04-01T10:20:00.823Z,18.30
2023-04-01T10:22:44.780Z,20.65
2023-04-01T10:25:24.983Z,18.27
2023-04-01T10:28:22.375Z,20.75
2023-04-01T10:31:28.690Z,17.95
2023-04-01T10:34:10.853Z,15.23
2023-04-01T10:37:00.176Z,8.18
2023-04-01T10:39:58.794Z,5.85
2023-04-01T10:43:32.748Z,5.45
2023-04-01T10:46:52.383Z,4.80
2023-04-01T10:52:25.585Z,5.55
2023-04-01T10:55:43.552Z,5.78
2023-04-01T10:58:38.751Z,5.80
2023-04-01T11:02:10.113Z,8.23
2023-04-01T11:05:24.063Z,6.55
2023-04-01T11:08:07.047Z,6.97
2023-04-01T11:10:56.270Z,6.72
2023-04-01T11:13:48.365Z,6.93
2023-04-01T11:16:36.126Z,6.85
2023-04-01T11:19:42.179Z,7.00
2023-04-01T11:22:23.207Z,7.75
2023-04-01T11:25:20.115Z,7.95
2023-04-01T11:28:36.174Z,7.00
2023-04-01T11:31:17.949Z,6.07
2023-04-01T11:33:54.370Z,6.50
2023-04-01T11:36:41.138Z,4.93
2023-04-01T11:39:51.603Z,4.65
2023-04-01T11:43:32.369Z,4.85
2023-04-01T11:46:38.436Z,3.88
2023-04-01T11:49:37.726Z,2.90
2023-04-01T11:52:45.447Z,2.43
2023-04-01T11:55:31.888Z,2.97
2023-04-01T11:58:11.976Z,2.78
2023-04-01T12:00:51.969Z,2.05
2023-04-01T12:03:29.042Z,3.10
2023-04-01T12:06:16.617Z,2.97
2023-04-01T12:09:16.224Z,3.15
2023-04-01T12:12:02.334Z,2.85
2023-04-01T12:15:01.422Z,3.00
2023-04-01T12:18:04.862Z,3.80
2023-04-01T12:20:46.413Z,3.92
2023-04-01T12:23:38.742Z,4.90
2023-04-01T12:26:28.362Z,4.15
2023-04-01T12:29:21.154Z,4.38
2023-04-01T12:32:02.829Z,4.13
2023-04-01T12:34:53.897Z,3.83
2023-04-01T12:37:35.846Z,4.13
2023-04-01T12:40:25.753Z,4.30
2023-04-01T12:43:11.087Z,3.63
2023-04-01T12:46:03.131Z,4.55
2023-04-01T12:49:07.844Z,4.85
2023-04-01T12:51:57.378Z,3.80
2023-04-01T12:54:28.283Z,4.07
2023-04-01T12:57:42.808Z,4.20
2023-04-01T13:00:37.163Z,4.68
2023-04-01T13:03:23.159Z,4.28
2023-04-01T13:06:21.503Z,3.83
2023-04-01T13:09:08.902Z,3.83
2023-04-01T13:11:57.165Z,3.88
2023-04-01T13:14:49.981Z,4.07
2023-04-01T13:17:39.197Z,4.40
2023-04-01T13:20:29.402Z,3.67
2023-04-01T13:23:16.508Z,4.38
2023-04-01T13:26:16.474Z,3.50
2023-04-01T13:29:05.510Z,3.90
2023-04-01T13:31:56.885Z,3.45
2023-04-01T13:35:02.581Z,3.67
2023-04-01T13:37:53.870Z,3.70
2023-04-01T13:40:25.092Z,3.45
2023-04-01T13:43:11.285Z,3.67
2023-04-01T13:46:09.338Z,3.72
2023-04-01T13:48:56.162Z,3.42
2023-04-01T13:51:44.694Z,3.30
2023-04-01T13:54:31.584Z,3.08
2023-04-01T13:57:08.822Z,3.25
2023-04-01T14:00:08.726Z,4.18
2023-04-01T14:02:51.676Z,3.42
2023-04-01T14:05:49.420Z,3.50
2023-04-01T14:08:51.066Z,3.65
2023-04-01T14:11:30.871Z,3.53
2023-04-01T14:14:05.018Z,3.97
2023-04-01T14:17:12.424Z,3.53
2023-04-01T14:20:18.007Z,3.40
2023-04-01T14:23:01.423Z,3.53
2023-04-01T14:25:29.537Z,4.00
2023-04-01T14:28:04.482Z,3.55
2023-04-01T14:30:59.403Z,3.50
2023-04-01T14:33:33.547Z,2.50
2023-04-01T14:36:35.274Z,3.00
2023-04-01T14:39:50.662Z,2.58
2023-04-01T14:42:39.205Z,2.40
2023-04-01T14:45:21.396Z,2.42
2023-04-01T14:47:59.538Z,3.03
2023-04-01T14:50:42.734Z,2.42
2023-04-01T14:53:39.717Z,2.42
2023-04-01T14:56:07.905Z,2.45
2023-04-01T14:58:46.629Z,3.00
2023-04-01T15:01:43.419Z,3.22
2023-04-01T15:04:41.052Z,2.90
2023-04-01T15:07:11.983Z,3.38
2023-04-01T15:09:56.947Z,3.95
2023-04-01T15:12:55.418Z,3.80
2023-04-01T15:16:01.291Z,2.55
2023-04-01T15:18:35.689Z,2.03
2023-04-01T15:21:03.980Z,2.00
2023-04-01T15:23:39.110Z,1.90
2023-04-01T15:26:17.610Z,2.00
2023-04-01T15:29:13.742Z,2.00
2023-04-01T15:32:03.606Z,1.35
2023-04-01T15:35:07.341Z,1.58
2023-04-01T15:37:44.523Z,1.58
2023-04-01T15:40:53.147Z,1.50
2023-04-01T15:43:46.941Z,1.65
2023-04-01T15:46:21.298Z,1.15
2023-04-01T15:48:55.340Z,1.63
2023-04-01T15:51:57.387Z,1.60
2023-04-01T15:54:34.115Z,1.63
2023-04-01T15:57:29.885Z,1.52
2023-04-01T16:00:30.217Z,1.63
2023-04-01T16:03:17.198Z,1.50
2023-04-01T16:06:00.460Z,1.48
2023-04-01T16:08:53.216Z,1.20
2023-04-01T16:11:33.502Z,1.00
2023-04-01T16:14:37.837Z,1.42
2023-04-01T16:17:44.459Z,1.15
2023-04-01T16:20:42.880Z,1.17
2023-04-01T16:23:24.351Z,1.00
2023-04-01T16:26:08.295Z,0.95
2023-04-01T16:28:50.908Z,1.15
2023-04-01T16:31:47.196Z,0.98
2023-04-01T16:34:37.134Z,0.70
2023-04-01T16:37:16.916Z,0.90
2023-04-01T16:40:02.461Z,0.70
2023-04-01T16:42:57.108Z,0.50
2023-04-01T16:45:41.357Z,0.28
2023-04-01T16:48:14.609Z,0.70
2023-04-01T16:51:10.721Z,0.60
2023-04-01T16:54:01.537Z,0.52
2023-04-01T16:56:48.912Z,0.80
2023-04-01T16:59:20.821Z,0.70
2023-04-01T17:02:10.091Z,0.60
2023-04-01T17:04:48.075Z,0.50
2023-04-01T17:07:38.023Z,0.80
2023-04-01T17:10:38.253Z,1.30
2023-04-01T17:13:21.516Z,1.17
2023-04-01T17:16:26.575Z,1.45
2023-04-01T17:19:13.193Z,1.02
2023-04-01T17:22:02.383Z,1.10
2023-04-01T17:24:48.374Z,1.35
2023-04-01T17:27:44.809Z,1.63
2023-04-01T17:30:20.246Z,1.10
2023-04-01T17:33:08.185Z,1.10
2023-04-01T17:35:59.881Z,1.90
2023-04-01T17:38:58.399Z,2.10
2023-04-01T17:41:47.346Z,2.00
2023-04-01T17:44:48.290Z,1.50
2023-04-01T17:47:29.556Z,1.77
2023-04-01T17:50:21.781Z,1.45
2023-04-01T17:53:07.710Z,2.22
2023-04-01T17:55:41.786Z,3.08
2023-04-01T17:58:09.805Z,2.40
2023-04-01T18:00:55.930Z,2.13
2023-04-01T18:03:53.840Z,2.03
2023-04-01T18:06:37.353Z,1.65
2023-04-01T18:09:43.078Z,1.90
2023-04-01T18:12:19.996Z,1.80
2023-04-01T18:15:22.786Z,1.70
2023-04-01T18:18:28.909Z,1.88
2023-04-01T18:21:19.428Z,2.40
2023-04-01T18:24:20.090Z,2.30
2023-04-01T18:27:10.554Z,3.05
2023-04-01T18:29:54.011Z,3.05
2023-04-01T18:32:45.949Z,3.72
2023-04-01T18:35:41.386Z,3.17
2023-04-01T18:38:30.388Z,3.17
2023-04-01T18:41:14.186Z,3.97
2023-04-01T18:44:13.003Z,3.20
2023-04-01T18:47:15.021Z,3.13
2023-04-01T18:50:01.208Z,3.33
2023-04-01T18:52:41.162Z,2.97
2023-04-01T18:55:15.116Z,3.38
2023-04-01T18:58:07.408Z,3.50
2023-04-01T19:00:46.541Z,3.97
2023-04-01T19:03:27.325Z,3.92
2023-04-01T19:06:00.968Z,3.85
2023-04-01T19:08:33.528Z,3.55
2023-04-01T19:11:13.272Z,3.63
2023-04-01T19:14:22.868Z,4.10
2023-04-01T19:17:25.183Z,3.90
2023-04-01T19:20:21.103Z,3.88
2023-04-01T19:23:19.268Z,3.85
2023-04-01T19:25:54.725Z,3.45
2023-04-01T19:28:47.051Z,2.97
2023-04-01T19:31:41.695Z,4.65
2023-04-01T19:34:13.041Z,4.35
2023-04-01T19:37:03.434Z,4.03
2023-04-01T19:39:55.781Z,3.72
2023-04-01T19:42:41.361Z,3.67
2023-04-01T19:45:20.844Z,4.00
2023-04-01T19:47:57.627Z,3.90
2023-04-01T19:50:36.364Z,2.90
2023-04-01T19:53:26.968Z,4.13
2023-04-01T19:56:13.359Z,4.13
2023-04-01T19:58:47.300Z,4.30
2023-04-01T20:01:34.672Z,4.30
2023-04-01T20:04:17.627Z,3.83
2023-04-01T20:07:00.110Z,4.20
2023-04-01T20:09:47.513Z,4.38
2023-04-01T20:12:58.520Z,3.90
2023-04-01T20:15:47.284Z,4.53
2023-04-01T20:18:24.493Z,4.30
2023-04-01T20:21:20.111Z,4.00
2023-04-01T20:24:07.359Z,3.65
2023-04-01T20:26:47.889Z,4.22
2023-04-01T20:29:28.122Z,3.85
2023-04-01T20:32:20.305Z,4.30
2023-04-01T20:35:14.141Z,4.75
2023-04-01T20:38:15.455Z,5.53
2023-04-01T20:40:52.219Z,4.95
2023-04-01T20:43:32.391Z,5.47
2023-04-01T20:46:48.780Z,6.43
2023-04-01T20:49:32.186Z,5.80
2023-04-01T20:52:04.497Z,6.68
2023-04-01T20:54:43.648Z,7.07
2023-04-01T20:57:17.636Z,7.63
2023-04-01T20:59:53.960Z,8.75
2023-04-01T21:02:44.438Z,9.45
2023-04-01T21:05:52.801Z,9.45
2023-04-01T21:08:49.075Z,9.98
2023-04-01T21:11:51.430Z,11.77
2023-04-01T21:14:38.165Z,10.95
2023-04-01T21:17:31.556Z,11.65
2023-04-01T21:20:32.292Z,12.13
2023-04-01T21:23:17.903Z,14.38
2023-04-01T21:26:10.381Z,16.42
2023-04-01T21:28:44.830Z,19.70
2023-04-01T21:31:51.595Z,18.50
2023-04-01T21:34:50.698Z,19.02
2023-04-01T21:37:51.258Z,17.88
2023-04-01T21:41:03.999Z,19.40
2023-04-01T21:44:27.509Z,19.52
2023-04-01T21:47:13.799Z,21.40
2023-04-01T21:49:47.722Z,20.85
2023-04-01T21:52:52.998Z,22.38
2023-04-01T21:55:59.987Z,20.88
2023-04-01T21:58:53.107Z,21.48
2023-04-01T22:01:47.050Z,20.00
2023-04-01T22:04:32.998Z,19.83
2023-04-01T22:07:20.300Z,19.83
2023-04-01T22:09:54.627Z,18.75
2023-04-01T22:12:31.129Z,19.38
2023-04-01T22:15:30.436Z,19.60
2023-04-01T22:18:15.028Z,19.10
2023-04-01T22:20:58.358Z,18.35
2023-04-01T22:23:49.823Z,20.17
2023-04-01T22:26:45.392Z,18.40
2023-04-01T22:29:32.738Z,18.55
2023-04-01T22:32:09.477Z,18.27
2023-04-01T22:35:12.550Z,18.52
2023-04-01T22:37:55.379Z,18.02
2023-04-01T22:40:47.058Z,19.03
2023-04-01T22:43:27.893Z,18.27
2023-04-01T22:46:04.169Z,17.55
2023-04-01T22:48:42.016Z,17.63
2023-04-01T22:51:48.174Z,17.38
2023-04-01T22:54:23.933Z,17.08
2023-04-01T22:57:15.184Z,16.20
2023-04-01T22:59:51.716Z,15.88
2023-04-01T23:02:28.494Z,14.88
2023-04-01T23:05:00.311Z,15.10
2023-04-01T23:08:15.712Z,14.52
2023-04-01T23:10:55.509Z,15.57
2023-04-01T23:13:35.338Z,14.35
2023-04-01T23:16:03.824Z,15.77
2023-04-01T23:18:38.703Z,16.58
2023-04-01T23:21:09.585Z,15.77
2023-04-01T23:23:49.462Z,15.23
2023-04-01T23:26:26.682Z,14.60
2023-04-01T23:28:57.351Z,14.48
2023-04-01T23:31:37.921Z,14.55
2023-04-01T23:34:14.953Z,12.68
2023-04-01T23:36:47.221Z,12.05
2023-04-01T23:39:30.257Z,12.68
2023-04-01T23:42:03.256Z,13.48
2023-04-01T23:44:33.672Z,12.00
2023-04-01T23:47:04.383Z,10.65
2023-04-01T23:49:49.109Z,11.15
2023-04-01T23:52:35.936Z,9.70
2023-04-01T23:55:25.325Z,9.77
2023-04-01T23:58:16.369Z,8.82
